sensor_id;sensor_type;location;lat;lon;timestamp;pressure;altitude;pressure_sealevel;temperature;humidity
43147;BME280;28752;48.266;7.402;2022-09-09T00:06:58;99096.56;;;17.76;69.42
43147;BME280;28752;48.266;7.402;2022-09-09T00:09:28;99113.81;;;17.60;69.12
43147;BME280;28752;48.266;7.402;2022-09-09T00:14:49;99111.53;;;17.57;69.81
43147;BME280;28752;48.266;7.402;2022-09-09T00:22:28;99103.78;;;17.34;71.03
43147;BME280;28752;48.266;7.402;2022-09-09T00:25:11;99109.38;;;17.39;70.92
43147;BME280;28752;48.266;7.402;2022-09-09T00:27:42;99113.72;;;17.40;71.69
43147;BME280;28752;48.266;7.402;2022-09-09T00:30:14;99099.69;;;17.38;71.48
43147;BME280;28752;48.266;7.402;2022-09-09T00:32:41;99105.03;;;17.31;71.60
43147;BME280;28752;48.266;7.402;2022-09-09T00:35:24;99103.22;;;17.38;71.47
43147;BME280;28752;48.266;7.402;2022-09-09T00:37:54;99120.88;;;17.33;72.64
43147;BME280;28752;48.266;7.402;2022-09-09T00:40:38;99108.31;;;17.33;72.09
43147;BME280;28752;48.266;7.402;2022-09-09T00:51:47;99100.81;;;17.15;73.79
43147;BME280;28752;48.266;7.402;2022-09-09T00:54:19;99100.00;;;17.15;73.40
43147;BME280;28752;48.266;7.402;2022-09-09T00:57:28;99086.63;;;17.15;72.58
43147;BME280;28752;48.266;7.402;2022-09-09T01:00:24;99089.41;;;17.00;73.15
43147;BME280;28752;48.266;7.402;2022-09-09T01:06:02;99092.81;;;16.87;74.22
43147;BME280;28752;48.266;7.402;2022-09-09T01:11:32;99068.38;;;16.68;74.53
43147;BME280;28752;48.266;7.402;2022-09-09T01:17:12;99076.84;;;16.72;74.90
43147;BME280;28752;48.266;7.402;2022-09-09T01:22:40;99075.72;;;16.60;75.85
43147;BME280;28752;48.266;7.402;2022-09-09T01:27:43;99079.56;;;16.50;77.22
43147;BME280;28752;48.266;7.402;2022-09-09T01:30:11;99075.25;;;16.56;77.47
43147;BME280;28752;48.266;7.402;2022-09-09T01:32:44;99055.03;;;16.47;76.64
43147;BME280;28752;48.266;7.402;2022-09-09T01:35:15;99040.06;;;16.46;76.31
43147;BME280;28752;48.266;7.402;2022-09-09T01:37:43;99040.19;;;16.38;77.27
43147;BME280;28752;48.266;7.402;2022-09-09T01:40:08;99046.34;;;16.38;76.31
43147;BME280;28752;48.266;7.402;2022-09-09T01:42:34;99055.59;;;16.36;75.49
43147;BME280;28752;48.266;7.402;2022-09-09T01:44:59;99050.16;;;16.29;75.17
43147;BME280;28752;48.266;7.402;2022-09-09T01:47:25;99046.63;;;16.22;76.02
43147;BME280;28752;48.266;7.402;2022-09-09T01:49:50;99060.81;;;16.22;76.85
43147;BME280;28752;48.266;7.402;2022-09-09T01:52:16;99062.00;;;16.20;77.86
43147;BME280;28752;48.266;7.402;2022-09-09T01:54:41;99072.25;;;16.16;78.86
43147;BME280;28752;48.266;7.402;2022-09-09T01:57:23;99066.47;;;16.12;78.71
43147;BME280;28752;48.266;7.402;2022-09-09T02:00:08;99082.41;;;16.06;78.50
43147;BME280;28752;48.266;7.402;2022-09-09T02:03:03;99081.59;;;16.05;78.33
43147;BME280;28752;48.266;7.402;2022-09-09T02:05:36;99081.22;;;16.08;78.19
43147;BME280;28752;48.266;7.402;2022-09-09T02:08:18;99082.13;;;16.15;77.38
43147;BME280;28752;48.266;7.402;2022-09-09T02:10:51;99069.81;;;16.21;77.45
43147;BME280;28752;48.266;7.402;2022-09-09T02:13:20;99073.81;;;16.32;78.72
43147;BME280;28752;48.266;7.402;2022-09-09T02:15:58;99058.44;;;16.34;79.09
43147;BME280;28752;48.266;7.402;2022-09-09T02:18:35;99073.72;;;16.40;78.78
43147;BME280;28752;48.266;7.402;2022-09-09T02:21:02;99076.56;;;16.39;79.83
43147;BME280;28752;48.266;7.402;2022-09-09T02:23:28;99080.63;;;16.34;80.08
43147;BME280;28752;48.266;7.402;2022-09-09T02:25:55;99069.44;;;16.24;81.15
43147;BME280;28752;48.266;7.402;2022-09-09T02:28:24;99068.63;;;16.24;81.35
43147;BME280;28752;48.266;7.402;2022-09-09T02:30:50;99062.91;;;16.05;80.53
43147;BME280;28752;48.266;7.402;2022-09-09T02:33:22;99082.50;;;16.12;79.99
43147;BME280;28752;48.266;7.402;2022-09-09T02:35:51;99080.94;;;16.03;79.67
43147;BME280;28752;48.266;7.402;2022-09-09T02:38:18;99087.06;;;16.19;78.50
43147;BME280;28752;48.266;7.402;2022-09-09T02:40:45;99092.34;;;16.12;79.02
43147;BME280;28752;48.266;7.402;2022-09-09T02:43:11;99073.25;;;15.93;80.22
43147;BME280;28752;48.266;7.402;2022-09-09T02:45:43;99081.97;;;16.02;80.07
43147;BME280;28752;48.266;7.402;2022-09-09T02:48:34;99075.97;;;16.00;80.40
43147;BME280;28752;48.266;7.402;2022-09-09T02:51:12;99073.00;;;15.88;80.84
43147;BME280;28752;48.266;7.402;2022-09-09T02:53:59;99082.28;;;15.92;80.91
43147;BME280;28752;48.266;7.402;2022-09-09T02:56:31;99084.31;;;15.90;81.71
43147;BME280;28752;48.266;7.402;2022-09-09T02:59:04;99079.63;;;15.77;81.94
43147;BME280;28752;48.266;7.402;2022-09-09T03:01:30;99092.97;;;15.77;80.96
43147;BME280;28752;48.266;7.402;2022-09-09T03:03:55;99088.22;;;15.58;82.20
43147;BME280;28752;48.266;7.402;2022-09-09T03:06:20;99087.66;;;15.62;82.98
43147;BME280;28752;48.266;7.402;2022-09-09T03:08:46;99098.25;;;15.56;82.14
43147;BME280;28752;48.266;7.402;2022-09-09T03:11:14;99094.66;;;15.49;83.13
43147;BME280;28752;48.266;7.402;2022-09-09T03:13:39;99099.91;;;15.42;83.89
43147;BME280;28752;48.266;7.402;2022-09-09T03:16:05;99080.06;;;15.30;84.74
43147;BME280;28752;48.266;7.402;2022-09-09T03:18:30;99086.94;;;15.39;84.31
43147;BME280;28752;48.266;7.402;2022-09-09T03:20:57;99091.47;;;15.23;85.37
43147;BME280;28752;48.266;7.402;2022-09-09T03:23:23;99068.75;;;15.13;86.57
43147;BME280;28752;48.266;7.402;2022-09-09T03:25:49;99088.00;;;15.23;86.75
43147;BME280;28752;48.266;7.402;2022-09-09T03:28:16;99075.03;;;15.05;87.13
43147;BME280;28752;48.266;7.402;2022-09-09T03:30:42;99087.97;;;15.08;87.58
43147;BME280;28752;48.266;7.402;2022-09-09T03:33:07;99089.16;;;15.05;88.25
43147;BME280;28752;48.266;7.402;2022-09-09T03:35:32;99088.06;;;15.00;88.51
43147;BME280;28752;48.266;7.402;2022-09-09T03:37:58;99088.41;;;14.97;88.68
43147;BME280;28752;48.266;7.402;2022-09-09T03:40:23;99084.66;;;14.91;88.66
43147;BME280;28752;48.266;7.402;2022-09-09T03:42:48;99077.09;;;14.80;89.24
43147;BME280;28752;48.266;7.402;2022-09-09T03:45:14;99089.78;;;14.78;89.87
43147;BME280;28752;48.266;7.402;2022-09-09T03:47:40;99087.00;;;14.71;90.22
43147;BME280;28752;48.266;7.402;2022-09-09T03:50:07;99076.25;;;14.64;90.57
43147;BME280;28752;48.266;7.402;2022-09-09T03:52:39;99070.50;;;14.52;90.79
43147;BME280;28752;48.266;7.402;2022-09-09T03:55:06;99075.19;;;14.50;91.67
43147;BME280;28752;48.266;7.402;2022-09-09T03:57:33;99072.03;;;14.47;91.26
43147;BME280;28752;48.266;7.402;2022-09-09T04:00:04;99067.72;;;14.46;91.90
43147;BME280;28752;48.266;7.402;2022-09-09T04:02:30;99051.34;;;14.34;91.60
43147;BME280;28752;48.266;7.402;2022-09-09T04:04:55;99058.16;;;14.36;91.68
43147;BME280;28752;48.266;7.402;2022-09-09T04:07:21;99070.09;;;14.40;91.97
43147;BME280;28752;48.266;7.402;2022-09-09T04:09:46;99061.53;;;14.30;92.57
43147;BME280;28752;48.266;7.402;2022-09-09T04:12:12;99045.06;;;14.27;92.82
43147;BME280;28752;48.266;7.402;2022-09-09T04:14:38;99033.63;;;14.03;92.73
43147;BME280;28752;48.266;7.402;2022-09-09T04:17:03;99060.44;;;14.16;93.03
43147;BME280;28752;48.266;7.402;2022-09-09T04:19:31;99070.22;;;14.24;92.77
43147;BME280;28752;48.266;7.402;2022-09-09T04:21:57;99050.53;;;14.10;93.11
43147;BME280;28752;48.266;7.402;2022-09-09T04:24:22;99072.88;;;14.24;93.91
43147;BME280;28752;48.266;7.402;2022-09-09T04:26:47;99077.88;;;14.27;94.62
43147;BME280;28752;48.266;7.402;2022-09-09T04:29:13;99074.50;;;14.33;94.10
43147;BME280;28752;48.266;7.402;2022-09-09T04:31:38;99075.78;;;14.37;93.88
43147;BME280;28752;48.266;7.402;2022-09-09T04:34:08;99079.97;;;14.55;93.81
43147;BME280;28752;48.266;7.402;2022-09-09T04:36:33;99073.28;;;14.59;92.56
43147;BME280;28752;48.266;7.402;2022-09-09T04:38:59;99055.81;;;14.56;92.61
43147;BME280;28752;48.266;7.402;2022-09-09T04:41:25;99054.38;;;14.69;92.58
43147;BME280;28752;48.266;7.402;2022-09-09T04:43:50;99071.94;;;14.78;91.93
43147;BME280;28752;48.266;7.402;2022-09-09T04:46:19;99081.25;;;14.82;91.93
43147;BME280;28752;48.266;7.402;2022-09-09T04:48:44;99081.63;;;14.79;92.49
43147;BME280;28752;48.266;7.402;2022-09-09T04:51:12;99080.75;;;14.79;92.78
43147;BME280;28752;48.266;7.402;2022-09-09T04:53:38;99085.81;;;14.73;92.93
43147;BME280;28752;48.266;7.402;2022-09-09T04:56:16;99079.19;;;14.69;93.21
43147;BME280;28752;48.266;7.402;2022-09-09T04:58:42;99078.91;;;14.64;93.78
43147;BME280;28752;48.266;7.402;2022-09-09T05:01:15;99087.13;;;14.78;92.15
43147;BME280;28752;48.266;7.402;2022-09-09T05:03:42;99070.28;;;14.62;92.34
43147;BME280;28752;48.266;7.402;2022-09-09T05:06:10;99077.28;;;14.78;91.70
43147;BME280;28752;48.266;7.402;2022-09-09T05:08:37;99078.22;;;14.85;91.98
43147;BME280;28752;48.266;7.402;2022-09-09T05:11:13;99076.72;;;14.83;92.61
43147;BME280;28752;48.266;7.402;2022-09-09T05:13:38;99075.38;;;14.87;92.34
43147;BME280;28752;48.266;7.402;2022-09-09T05:16:04;99074.06;;;14.83;92.79
43147;BME280;28752;48.266;7.402;2022-09-09T05:18:30;99072.88;;;14.85;92.39
43147;BME280;28752;48.266;7.402;2022-09-09T05:20:59;99083.09;;;14.97;93.13
43147;BME280;28752;48.266;7.402;2022-09-09T05:23:25;99085.94;;;14.95;92.37
43147;BME280;28752;48.266;7.402;2022-09-09T05:25:57;99086.41;;;14.99;92.67
43147;BME280;28752;48.266;7.402;2022-09-09T05:28:24;99070.59;;;14.97;92.88
43147;BME280;28752;48.266;7.402;2022-09-09T05:31:20;99091.09;;;15.12;92.62
43147;BME280;28752;48.266;7.402;2022-09-09T05:33:48;99090.09;;;15.13;91.04
43147;BME280;28752;48.266;7.402;2022-09-09T05:36:21;99090.16;;;15.04;91.79
43147;BME280;28752;48.266;7.402;2022-09-09T05:38:47;99098.47;;;15.09;91.53
43147;BME280;28752;48.266;7.402;2022-09-09T05:41:13;99100.22;;;15.17;92.36
43147;BME280;28752;48.266;7.402;2022-09-09T05:43:45;99106.72;;;15.15;91.84
43147;BME280;28752;48.266;7.402;2022-09-09T05:46:14;99112.25;;;15.13;91.66
43147;BME280;28752;48.266;7.402;2022-09-09T05:48:42;99110.59;;;15.27;90.42
43147;BME280;28752;48.266;7.402;2022-09-09T05:51:12;99107.91;;;15.42;90.86
43147;BME280;28752;48.266;7.402;2022-09-09T05:53:41;99099.19;;;15.48;90.35
43147;BME280;28752;48.266;7.402;2022-09-09T05:56:27;99101.19;;;15.61;88.76
43147;BME280;28752;48.266;7.402;2022-09-09T05:58:54;99099.88;;;15.72;88.68
43147;BME280;28752;48.266;7.402;2022-09-09T06:01:22;99105.59;;;15.84;87.48
43147;BME280;28752;48.266;7.402;2022-09-09T06:03:50;99111.00;;;15.90;86.62
43147;BME280;28752;48.266;7.402;2022-09-09T06:06:20;99115.78;;;15.95;86.65
43147;BME280;28752;48.266;7.402;2022-09-09T06:08:50;99123.03;;;16.01;86.14
43147;BME280;28752;48.266;7.402;2022-09-09T06:11:21;99115.94;;;16.08;85.56
43147;BME280;28752;48.266;7.402;2022-09-09T06:13:47;99121.09;;;16.10;84.94
43147;BME280;28752;48.266;7.402;2022-09-09T06:16:15;99121.25;;;15.87;86.39
43147;BME280;28752;48.266;7.402;2022-09-09T06:18:41;99115.84;;;16.02;86.61
43147;BME280;28752;48.266;7.402;2022-09-09T06:21:13;99110.66;;;15.78;86.08
43147;BME280;28752;48.266;7.402;2022-09-09T06:23:39;99116.66;;;15.80;86.43
43147;BME280;28752;48.266;7.402;2022-09-09T06:26:20;99126.97;;;15.84;87.28
43147;BME280;28752;48.266;7.402;2022-09-09T06:28:49;99130.06;;;15.87;87.50
43147;BME280;28752;48.266;7.402;2022-09-09T06:31:19;99126.75;;;16.43;85.76
43147;BME280;28752;48.266;7.402;2022-09-09T06:33:49;99125.22;;;17.82;78.72
43147;BME280;28752;48.266;7.402;2022-09-09T06:36:21;99110.84;;;17.90;76.20
43147;BME280;28752;48.266;7.402;2022-09-09T06:38:46;99116.75;;;18.40;74.84
43147;BME280;28752;48.266;7.402;2022-09-09T06:41:14;99127.84;;;18.24;74.20
43147;BME280;28752;48.266;7.402;2022-09-09T06:43:40;99126.63;;;18.33;74.01
43147;BME280;28752;48.266;7.402;2022-09-09T06:46:13;99115.91;;;18.33;73.87
43147;BME280;28752;48.266;7.402;2022-09-09T06:48:40;99116.34;;;18.63;72.96
43147;BME280;28752;48.266;7.402;2022-09-09T06:51:12;99118.94;;;20.41;67.05
43147;BME280;28752;48.266;7.402;2022-09-09T06:53:39;99114.66;;;22.02;60.39
43147;BME280;28752;48.266;7.402;2022-09-09T06:58:37;99107.66;;;25.54;49.33
43147;BME280;28752;48.266;7.402;2022-09-09T07:01:08;99103.09;;;26.04;46.07
43147;BME280;28752;48.266;7.402;2022-09-09T07:03:35;99115.72;;;26.81;44.82
43147;BME280;28752;48.266;7.402;2022-09-09T07:06:01;99119.66;;;28.06;43.00
43147;BME280;28752;48.266;7.402;2022-09-09T07:08:26;99121.63;;;28.83;41.43
43147;BME280;28752;48.266;7.402;2022-09-09T07:10:52;99119.13;;;29.17;39.56
43147;BME280;28752;48.266;7.402;2022-09-09T07:13:28;99114.25;;;28.47;40.82
43147;BME280;28752;48.266;7.402;2022-09-09T07:15:53;99119.66;;;29.14;40.24
43147;BME280;28752;48.266;7.402;2022-09-09T07:18:19;99123.47;;;29.29;39.53
43147;BME280;28752;48.266;7.402;2022-09-09T07:20:54;99111.31;;;29.76;38.95
43147;BME280;28752;48.266;7.402;2022-09-09T07:23:20;99114.84;;;29.82;38.73
43147;BME280;28752;48.266;7.402;2022-09-09T07:25:45;99123.22;;;29.95;38.96
43147;BME280;28752;48.266;7.402;2022-09-09T07:28:10;99130.84;;;29.07;39.12
43147;BME280;28752;48.266;7.402;2022-09-09T07:30:36;99120.72;;;28.10;41.12
43147;BME280;28752;48.266;7.402;2022-09-09T07:33:01;99109.44;;;27.71;42.28
43147;BME280;28752;48.266;7.402;2022-09-09T07:35:28;99116.88;;;26.90;44.37
43147;BME280;28752;48.266;7.402;2022-09-09T07:37:54;99121.94;;;26.76;44.97
43147;BME280;28752;48.266;7.402;2022-09-09T07:40:19;99125.03;;;26.57;46.32
43147;BME280;28752;48.266;7.402;2022-09-09T07:42:47;99120.69;;;25.58;47.37
43147;BME280;28752;48.266;7.402;2022-09-09T07:45:15;99136.50;;;24.71;49.71
43147;BME280;28752;48.266;7.402;2022-09-09T07:47:41;99129.88;;;23.51;52.83
43147;BME280;28752;48.266;7.402;2022-09-09T07:50:09;99129.78;;;23.34;54.15
43147;BME280;28752;48.266;7.402;2022-09-09T07:52:38;99114.06;;;23.19;55.05
43147;BME280;28752;48.266;7.402;2022-09-09T07:55:04;99124.41;;;23.22;54.72
43147;BME280;28752;48.266;7.402;2022-09-09T07:57:31;99120.59;;;22.88;56.53
43147;BME280;28752;48.266;7.402;2022-09-09T07:59:56;99130.47;;;22.70;57.06
43147;BME280;28752;48.266;7.402;2022-09-09T08:02:23;99127.63;;;22.53;58.38
43147;BME280;28752;48.266;7.402;2022-09-09T08:04:49;99126.44;;;22.49;58.67
43147;BME280;28752;48.266;7.402;2022-09-09T08:07:15;99127.81;;;22.40;58.56
43147;BME280;28752;48.266;7.402;2022-09-09T08:09:41;99125.88;;;22.29;59.60
43147;BME280;28752;48.266;7.402;2022-09-09T08:12:06;99138.03;;;22.19;60.20
43147;BME280;28752;48.266;7.402;2022-09-09T08:14:34;99148.28;;;21.99;60.43
43147;BME280;28752;48.266;7.402;2022-09-09T08:16:59;99146.66;;;21.79;61.54
43147;BME280;28752;48.266;7.402;2022-09-09T08:19:25;99156.59;;;21.60;62.62
43147;BME280;28752;48.266;7.402;2022-09-09T08:21:51;99147.69;;;21.41;66.81
43147;BME280;28752;48.266;7.402;2022-09-09T08:24:16;99146.56;;;21.30;68.94
43147;BME280;28752;48.266;7.402;2022-09-09T08:26:44;99154.63;;;21.30;67.22
43147;BME280;28752;48.266;7.402;2022-09-09T08:29:11;99170.69;;;21.37;66.91
43147;BME280;28752;48.266;7.402;2022-09-09T08:31:49;99159.25;;;21.23;70.11
43147;BME280;28752;48.266;7.402;2022-09-09T08:34:16;99159.03;;;21.25;71.43
43147;BME280;28752;48.266;7.402;2022-09-09T08:36:46;99161.63;;;21.32;71.19
43147;BME280;28752;48.266;7.402;2022-09-09T08:39:17;99154.44;;;21.25;72.45
43147;BME280;28752;48.266;7.402;2022-09-09T08:42:15;99156.19;;;21.20;73.38
43147;BME280;28752;48.266;7.402;2022-09-09T08:52:31;99172.88;;;20.78;75.24
43147;BME280;28752;48.266;7.402;2022-09-09T08:55:05;99173.16;;;20.63;75.72
43147;BME280;28752;48.266;7.402;2022-09-09T08:57:38;99167.25;;;20.54;75.90
43147;BME280;28752;48.266;7.402;2022-09-09T09:00:04;99179.25;;;20.52;76.12
43147;BME280;28752;48.266;7.402;2022-09-09T09:05:35;99183.88;;;20.38;74.24
43147;BME280;28752;48.266;7.402;2022-09-09T09:08:12;99187.25;;;20.27;72.62
43147;BME280;28752;48.266;7.402;2022-09-09T09:10:48;99188.47;;;20.31;71.59
43147;BME280;28752;48.266;7.402;2022-09-09T09:13:18;99174.28;;;20.17;74.86
43147;BME280;28752;48.266;7.402;2022-09-09T09:15:50;99186.34;;;20.39;75.81
43147;BME280;28752;48.266;7.402;2022-09-09T09:18:18;99182.38;;;20.49;71.71
43147;BME280;28752;48.266;7.402;2022-09-09T09:23:45;99160.44;;;20.84;70.91
43147;BME280;28752;48.266;7.402;2022-09-09T09:26:14;99178.28;;;21.03;68.76
43147;BME280;28752;48.266;7.402;2022-09-09T09:28:40;99173.28;;;21.25;70.24
43147;BME280;28752;48.266;7.402;2022-09-09T09:31:11;99161.91;;;21.48;71.10
43147;BME280;28752;48.266;7.402;2022-09-09T09:33:48;99161.25;;;21.53;67.99
43147;BME280;28752;48.266;7.402;2022-09-09T09:36:15;99173.00;;;21.59;62.66
43147;BME280;28752;48.266;7.402;2022-09-09T09:38:53;99166.06;;;21.70;61.65
43147;BME280;28752;48.266;7.402;2022-09-09T09:41:49;99180.88;;;21.79;62.23
43147;BME280;28752;48.266;7.402;2022-09-09T09:46:52;99179.78;;;21.43;63.45
43147;BME280;28752;48.266;7.402;2022-09-09T09:49:18;99175.31;;;21.55;66.18
43147;BME280;28752;48.266;7.402;2022-09-09T09:51:43;99162.19;;;21.40;65.59
43147;BME280;28752;48.266;7.402;2022-09-09T09:54:27;99183.56;;;21.35;64.83
43147;BME280;28752;48.266;7.402;2022-09-09T09:56:53;99175.53;;;21.28;65.42
43147;BME280;28752;48.266;7.402;2022-09-09T09:59:33;99181.16;;;21.27;64.85
43147;BME280;28752;48.266;7.402;2022-09-09T10:05:22;99167.91;;;21.51;68.83
43147;BME280;28752;48.266;7.402;2022-09-09T10:08:24;99163.78;;;21.67;67.56
43147;BME280;28752;48.266;7.402;2022-09-09T10:19:51;99152.44;;;22.44;65.03
43147;BME280;28752;48.266;7.402;2022-09-09T10:29:52;99121.44;;;22.04;59.75
43147;BME280;28752;48.266;7.402;2022-09-09T10:32:48;99129.06;;;22.07;60.21
43147;BME280;28752;48.266;7.402;2022-09-09T10:40:32;99137.50;;;22.29;57.78
43147;BME280;28752;48.266;7.402;2022-09-09T10:49:05;99137.50;;;22.83;55.02
43147;BME280;28752;48.266;7.402;2022-09-09T10:56:55;99125.34;;;23.40;53.32
43147;BME280;28752;48.266;7.402;2022-09-09T10:59:27;99124.72;;;23.50;52.77
43147;BME280;28752;48.266;7.402;2022-09-09T11:02:02;99120.50;;;23.42;50.67
43147;BME280;28752;48.266;7.402;2022-09-09T11:04:37;99118.03;;;23.40;52.55
43147;BME280;28752;48.266;7.402;2022-09-09T11:07:08;99126.00;;;23.00;52.08
43147;BME280;28752;48.266;7.402;2022-09-09T11:09:39;99121.09;;;22.97;51.50
43147;BME280;28752;48.266;7.402;2022-09-09T11:12:12;99122.53;;;23.11;50.86
43147;BME280;28752;48.266;7.402;2022-09-09T11:14:48;99107.72;;;23.14;50.67
43147;BME280;28752;48.266;7.402;2022-09-09T11:17:18;99108.19;;;22.99;50.64
43147;BME280;28752;48.266;7.402;2022-09-09T11:19:45;99107.56;;;22.85;52.16
43147;BME280;28752;48.266;7.402;2022-09-09T11:36:04;99133.50;;;22.74;51.94
43147;BME280;28752;48.266;7.402;2022-09-09T11:38:42;99123.69;;;23.03;51.53
43147;BME280;28752;48.266;7.402;2022-09-09T11:41:10;99122.84;;;23.03;49.88
43147;BME280;28752;48.266;7.402;2022-09-09T11:43:44;99104.53;;;22.81;48.12
43147;BME280;28752;48.266;7.402;2022-09-09T11:46:12;99100.56;;;22.84;48.21
43147;BME280;28752;48.266;7.402;2022-09-09T11:48:43;99115.59;;;23.03;49.17
43147;BME280;28752;48.266;7.402;2022-09-09T11:53:52;99115.34;;;23.40;49.15
43147;BME280;28752;48.266;7.402;2022-09-09T11:56:29;99121.44;;;23.36;46.80
43147;BME280;28752;48.266;7.402;2022-09-09T12:01:34;99115.84;;;23.78;46.59
43147;BME280;28752;48.266;7.402;2022-09-09T12:07:03;99121.94;;;23.85;47.23
43147;BME280;28752;48.266;7.402;2022-09-09T12:19:41;99105.06;;;23.66;46.95
43147;BME280;28752;48.266;7.402;2022-09-09T12:22:33;99122.97;;;23.96;47.17
43147;BME280;28752;48.266;7.402;2022-09-09T12:32:00;99115.97;;;23.71;46.02
43147;BME280;28752;48.266;7.402;2022-09-09T12:34:11;99103.66;;;23.64;47.90
43147;BME280;28752;48.266;7.402;2022-09-09T12:36:40;99098.88;;;23.54;45.72
43147;BME280;28752;48.266;7.402;2022-09-09T12:39:16;99095.75;;;23.74;46.55
43147;BME280;28752;48.266;7.402;2022-09-09T12:41:53;99094.34;;;23.71;46.97
43147;BME280;28752;48.266;7.402;2022-09-09T12:44:24;99090.25;;;23.69;46.20
43147;BME280;28752;48.266;7.402;2022-09-09T12:46:51;99084.94;;;23.86;47.63
43147;BME280;28752;48.266;7.402;2022-09-09T12:49:38;99088.81;;;23.90;46.11
43147;BME280;28752;48.266;7.402;2022-09-09T12:52:12;99071.00;;;23.94;48.43
43147;BME280;28752;48.266;7.402;2022-09-09T12:54:44;99062.91;;;23.53;47.30
43147;BME280;28752;48.266;7.402;2022-09-09T12:57:12;99075.88;;;23.80;49.12
43147;BME280;28752;48.266;7.402;2022-09-09T12:59:43;99075.13;;;23.97;48.50
43147;BME280;28752;48.266;7.402;2022-09-09T13:02:19;99075.97;;;24.14;45.44
43147;BME280;28752;48.266;7.402;2022-09-09T13:04:45;99079.50;;;24.15;44.48
43147;BME280;28752;48.266;7.402;2022-09-09T13:07:13;99074.88;;;23.98;42.93
43147;BME280;28752;48.266;7.402;2022-09-09T13:09:39;99072.34;;;23.91;43.17
43147;BME280;28752;48.266;7.402;2022-09-09T13:12:04;99061.28;;;23.81;43.74
43147;BME280;28752;48.266;7.402;2022-09-09T13:14:36;99065.72;;;23.58;43.51
43147;BME280;28752;48.266;7.402;2022-09-09T13:17:06;99044.34;;;23.57;43.01
43147;BME280;28752;48.266;7.402;2022-09-09T13:19:35;99060.81;;;23.84;43.56
43147;BME280;28752;48.266;7.402;2022-09-09T13:24:44;99054.13;;;24.33;43.88
43147;BME280;28752;48.266;7.402;2022-09-09T13:27:33;99045.81;;;24.22;42.33
43147;BME280;28752;48.266;7.402;2022-09-09T13:30:00;99050.22;;;23.94;42.18
43147;BME280;28752;48.266;7.402;2022-09-09T13:32:26;99052.94;;;23.54;42.99
43147;BME280;28752;48.266;7.402;2022-09-09T13:34:55;99042.06;;;23.37;43.68
43147;BME280;28752;48.266;7.402;2022-09-09T13:37:34;99041.97;;;23.20;43.88
43147;BME280;28752;48.266;7.402;2022-09-09T13:40:00;99048.91;;;23.04;44.55
43147;BME280;28752;48.266;7.402;2022-09-09T13:42:28;99041.41;;;23.18;44.85
43147;BME280;28752;48.266;7.402;2022-09-09T13:44:56;99044.09;;;23.18;42.50
43147;BME280;28752;48.266;7.402;2022-09-09T13:47:29;99047.38;;;23.20;42.40
43147;BME280;28752;48.266;7.402;2022-09-09T13:49:56;99058.28;;;23.37;42.86
43147;BME280;28752;48.266;7.402;2022-09-09T13:52:21;99068.25;;;23.36;41.70
43147;BME280;28752;48.266;7.402;2022-09-09T13:54:51;99072.44;;;23.44;42.55
43147;BME280;28752;48.266;7.402;2022-09-09T13:57:22;99063.38;;;23.10;41.67
43147;BME280;28752;48.266;7.402;2022-09-09T13:59:48;99081.88;;;23.06;42.88
43147;BME280;28752;48.266;7.402;2022-09-09T14:02:14;99084.59;;;22.94;42.71
43147;BME280;28752;48.266;7.402;2022-09-09T14:04:41;99070.84;;;23.07;44.46
43147;BME280;28752;48.266;7.402;2022-09-09T14:07:18;99085.41;;;23.18;44.13
43147;BME280;28752;48.266;7.402;2022-09-09T14:09:44;99074.50;;;23.25;44.83
43147;BME280;28752;48.266;7.402;2022-09-09T14:12:15;99075.28;;;23.49;43.49
43147;BME280;28752;48.266;7.402;2022-09-09T14:14:41;99075.13;;;23.56;43.50
43147;BME280;28752;48.266;7.402;2022-09-09T14:17:07;99073.16;;;23.39;43.28
43147;BME280;28752;48.266;7.402;2022-09-09T14:19:33;99058.78;;;23.22;44.78
43147;BME280;28752;48.266;7.402;2022-09-09T14:21:59;99049.84;;;22.86;44.28
43147;BME280;28752;48.266;7.402;2022-09-09T14:24:24;99054.66;;;22.96;45.02
43147;BME280;28752;48.266;7.402;2022-09-09T14:26:50;99074.16;;;22.98;46.42
43147;BME280;28752;48.266;7.402;2022-09-09T14:29:15;99060.88;;;23.08;47.08
43147;BME280;28752;48.266;7.402;2022-09-09T14:31:41;99059.47;;;22.94;47.15
43147;BME280;28752;48.266;7.402;2022-09-09T14:34:06;99058.75;;;22.86;45.82
43147;BME280;28752;48.266;7.402;2022-09-09T14:36:32;99063.22;;;22.93;46.58
43147;BME280;28752;48.266;7.402;2022-09-09T14:38:57;99053.50;;;22.80;46.58
43147;BME280;28752;48.266;7.402;2022-09-09T14:41:23;99061.94;;;22.83;46.78
43147;BME280;28752;48.266;7.402;2022-09-09T14:43:50;99071.09;;;22.82;46.47
43147;BME280;28752;48.266;7.402;2022-09-09T14:46:18;99072.38;;;22.92;46.13
43147;BME280;28752;48.266;7.402;2022-09-09T14:48:44;99061.22;;;23.00;46.61
43147;BME280;28752;48.266;7.402;2022-09-09T14:51:11;99067.47;;;23.00;45.10
43147;BME280;28752;48.266;7.402;2022-09-09T14:53:38;99059.81;;;23.09;45.34
43147;BME280;28752;48.266;7.402;2022-09-09T14:56:17;99071.19;;;23.23;45.42
43147;BME280;28752;48.266;7.402;2022-09-09T14:58:44;99060.38;;;23.23;44.61
43147;BME280;28752;48.266;7.402;2022-09-09T15:01:12;99058.84;;;23.39;44.65
43147;BME280;28752;48.266;7.402;2022-09-09T15:03:39;99043.75;;;23.14;43.95
43147;BME280;28752;48.266;7.402;2022-09-09T15:06:10;99046.78;;;23.18;44.62
43147;BME280;28752;48.266;7.402;2022-09-09T15:08:37;99044.69;;;23.08;43.53
43147;BME280;28752;48.266;7.402;2022-09-09T15:11:04;99044.56;;;22.91;45.21
43147;BME280;28752;48.266;7.402;2022-09-09T15:13:30;99049.03;;;22.85;44.41
43147;BME280;28752;48.266;7.402;2022-09-09T15:15:55;99057.59;;;22.82;45.16
43147;BME280;28752;48.266;7.402;2022-09-09T15:18:21;99058.41;;;22.83;46.01
43147;BME280;28752;48.266;7.402;2022-09-09T15:20:47;99050.56;;;22.69;47.20
43147;BME280;28752;48.266;7.402;2022-09-09T15:23:13;99055.13;;;22.57;47.04
43147;BME280;28752;48.266;7.402;2022-09-09T15:25:49;99061.81;;;22.66;46.63
43147;BME280;28752;48.266;7.402;2022-09-09T15:28:14;99061.94;;;22.60;45.57